Nearby METAR Reports


KANE - Minneapls/Blaine, Minnesota, USA
Distance from station: ESE 8mi, 13km
Updated: 09/25/2022 12:15am
Clear
Clear
 Wind from W
Wind: W 7 mph , 11 km/h
Temperature: 55°F , 13°C
Dew Point: 54°F , 12°C
Humidity: 94%
Barometer: 29.83 inHg , 1010.2 hPa
Clouds: Clear
Visibility: 10 miles , 16 km
2022/09/25 05:15 KANE 250515Z AUTO 27006KT 10SM CLR 13/12 A2983 RMK AO2
KMIC - Mnpls/Crystal, Minnesota, USA
Distance from station: S 8mi, 14km
Updated: 09/24/2022 11:53pm
Clear
Clear
 Wind from W
Wind: W 6 mph , 9 km/h
Temperature: 55°F , 13°C
Dew Point: 52°F , 11°C
Humidity: 88%
Barometer: 29.83 inHg , 1010.2 hPa
Clouds: Clear
Visibility: 10 miles , 16 km
2022/09/25 04:53 KMIC 250453Z AUTO 28005KT 10SM CLR 13/11 A2983 RMK AO2 SLP101 T01280106
 
KMSP - Minneapolis, Minnesota, USA
Distance from station: SSE 22mi, 35km
Updated: 09/24/2022 11:53pm
Few Clouds
Few Clouds
 Wind from WNW
Wind: WNW 8 mph , 13 km/h
Temperature: 55°F , 13°C
Dew Point: 50°F , 10°C
Humidity: 82%
Barometer: 29.84 inHg , 1010.5 hPa
Clouds: Few Clouds
Visibility: 10 miles , 16 km
Cloud details: Few Clouds 4700 ft
2022/09/25 04:53 KMSP 250453Z 30007KT 10SM FEW047 13/10 A2984 RMK AO2 SLP105 T01330100
KSTP - St. Paul, Minnesota, USA
Distance from station: SE 23mi, 38km
Updated: 09/24/2022 11:53pm
Clear
Clear
 Wind from WNW
Wind: WNW 7 mph , 11 km/h
Temperature: 57°F , 14°C
Dew Point: 52°F , 11°C
Humidity: 82%
Barometer: 29.83 inHg , 1010.2 hPa
Clouds: Clear
Visibility: 10 miles , 16 km
2022/09/25 04:53 KSTP 250453Z AUTO 30006KT 10SM CLR 14/11 A2983 RMK AO2 SLP100 T01390106
 
KCFE - Buffalo Muni, Minnesota, USA
Distance from station: W 24mi, 38km
Updated: 09/25/2022 12:15am
Overcast
Overcast
 Wind from WNW
Wind: WNW 7 mph , 11 km/h
Temperature: 55°F , 13°C
Dew Point: 52°F , 11°C
Humidity: 88%
Barometer: 29.85 inHg , 1010.8 hPa
Clouds: Overcast
Visibility: 10 miles , 16 km
Cloud details: Partly cloudy 3600 ft
Overcast 4700 ft
2022/09/25 05:15 KCFE 250515Z AUTO 29006KT 10SM SCT036 OVC047 13/11 A2985 RMK AO2
KFCM - Mnpls/Flying Cld, Minnesota, USA
Distance from station: S 25mi, 40km
Updated: 09/24/2022 11:53pm
Mostly cloudy
Mostly cloudy
 Wind from WNW
Wind: WNW 5 mph , 7 km/h
Temperature: 59°F , 15°C
Dew Point: 52°F , 11°C
Humidity: 77%
Barometer: 29.84 inHg , 1010.5 hPa
Clouds: Mostly cloudy
Visibility: 10 miles , 16 km
Cloud details: Mostly cloudy 9000 ft
2022/09/25 04:53 KFCM 250453Z AUTO 29004KT 10SM BKN090 15/11 A2984 RMK AO2 SLP102 T01500106
 
KCBG - Cambridge Muni, Minnesota, USA
Distance from station: N 27mi, 43km
Updated: 09/25/2022 12:15am
Partly cloudy
Partly cloudy
 Wind from W
Wind: W 7 mph , 11 km/h
Temperature: 55°F , 13°C
Dew Point: 43°F , 6°C
Humidity: 63%
Barometer: 29.83 inHg , 1010.2 hPa
Clouds: Partly cloudy
Visibility: 10 miles , 16 km
Cloud details: Partly cloudy 5000 ft
2022/09/25 05:15 KCBG 250515Z AUTO 28006KT 10SM SCT050 13/06 A2983 RMK AO2
KPNM - Princeton Muni, Minnesota, USA
Distance from station: NNW 27mi, 44km
Updated: 09/25/2022 12:15am
Overcast
Overcast
 Wind from W
Wind: W 5 mph , 7 km/h
Temperature: 54°F , 12°C
Dew Point: 52°F , 11°C
Humidity: 94%
Barometer: 29.85 inHg , 1010.8 hPa
Clouds: Overcast
Visibility: 10 miles , 16 km
Cloud details: Overcast 5000 ft
2022/09/25 05:15 KPNM 250515Z AUTO 26004KT 10SM OVC050 12/11 A2985 RMK AO2 TSNO
 
K21D - Lake Elmo, Minnesota, USA
Distance from station: ESE 28mi, 46km
Updated: 09/25/2022 12:15am
Partly cloudy
Partly cloudy
 Wind from WNW
Wind: WNW 7 mph , 11 km/h
Temperature: 54°F , 12°C
Dew Point: 52°F , 11°C
Humidity: 94%
Barometer: 29.84 inHg , 1010.5 hPa
Clouds: Partly cloudy
Visibility: 10 miles , 16 km
Cloud details: Partly cloudy 8500 ft
2022/09/25 05:15 K21D 250515Z AUTO 29006KT 10SM SCT085 12/11 A2984 RMK AO2
KSGS - South St Paul, Minnesota, USA
Distance from station: SE 28mi, 46km
Updated: 09/25/2022 12:15am
Clear
Clear
 Wind from WNW
Wind: WNW 7 mph , 11 km/h
Temperature: 57°F , 14°C
Dew Point: 50°F , 10°C
Humidity: 77%
Barometer: 29.83 inHg , 1010.2 hPa
Clouds: Clear
Visibility: 10 miles , 16 km
2022/09/25 05:15 KSGS 250515Z AUTO 30006KT 10SM CLR 14/10 A2983 RMK AO2 T01420103
 
KMGG - Maple Lake, Minnesota, USA
Distance from station: W 30mi, 48km
Updated: 09/25/2022 12:15am
Clear
Clear
 Wind from WNW
Wind: WNW 3 mph , 6 km/h
Temperature: 55°F , 13°C
Dew Point: 50°F , 10°C
Humidity: 82%
Barometer: 29.87 inHg , 1011.5 hPa
Clouds: Clear
Visibility: 10 miles , 16 km
2022/09/25 05:15 KMGG 250515Z AUTO 29003KT 10SM CLR 13/10 A2987 RMK AO2 T01300102
KOEO - Osceola, Wisconsin, USA
Distance from station: ENE 34mi, 55km
Updated: 09/25/2022 12:15am
Overcast
Overcast
 Wind from W
Wind: W 7 mph , 11 km/h
Temperature: 59°F , 15°C
Dew Point: 59°F , 15°C
Humidity: 100%
Barometer: 29.84 inHg , 1010.5 hPa
Clouds: Overcast
Visibility: 10 miles , 16 km
Cloud details: Mostly cloudy 1400 ft
Mostly cloudy 3800 ft
Overcast 4800 ft
2022/09/25 05:15 KOEO 250515Z AUTO 28006KT 10SM BKN014 BKN038 OVC048 15/15 A2984 RMK AO2 T01470146 PWINO
 
KLVN - Mnpls/Airlake, Minnesota, USA
Distance from station: S 39mi, 63km
Updated: 09/25/2022 12:15am
Clear
Clear
 Wind from W
Wind: W 5 mph , 7 km/h
Temperature: 54°F , 12°C
Dew Point: 48°F , 9°C
Humidity: 82%
Barometer: 29.85 inHg , 1010.8 hPa
Clouds: Clear
Visibility: 10 miles , 16 km
2022/09/25 05:15 KLVN 250515Z AUTO 28004KT 10SM CLR 12/09 A2985 RMK AO2
KRNH - New Richmond Mun, Wisconsin, USA
Distance from station: E 41mi, 66km
Updated: 09/25/2022 12:15am
Overcast
Overcast
 Wind from WNW
Wind: WNW 9 mph , 15 km/h
Temperature: 55°F , 13°C
Dew Point: 54°F , 12°C
Humidity: 94%
Barometer: 29.82 inHg , 1009.8 hPa
Clouds: Overcast
Visibility: 10 miles , 16 km
Cloud details: Partly cloudy 800 ft
Mostly cloudy 1200 ft
Overcast 5000 ft
2022/09/25 05:15 KRNH 250515Z AUTO 29008KT 10SM SCT008 BKN012 OVC050 13/12 A2982 RMK AO2 T01250115
 
KROS - Rush City, Minnesota, USA
Distance from station: NNE 41mi, 66km
Updated: 09/25/2022 12:07am
Overcast
Overcast
 Wind from W
Wind: W 5 mph , 7 km/h
Temperature: 57°F , 14°C
Dew Point: 54°F , 12°C
Humidity: 88%
Barometer: 29.82 inHg , 1009.8 hPa
Clouds: Overcast
Visibility: 10 miles , 16 km
Cloud details: Overcast 2300 ft
2022/09/25 05:07 KROS 250507Z AUTO 28004KT 10SM OVC023 14/12 A2982 RMK AO2
KSTC - St. Cloud, Minnesota, USA
Distance from station: NW 41mi, 67km
Updated: 09/24/2022 11:53pm
Few Clouds
Few Clouds
 Wind from W
Wind: W 8 mph , 13 km/h
Temperature: 54°F , 12°C
Dew Point: 52°F , 11°C
Humidity: 94%
Barometer: 29.85 inHg , 1010.8 hPa
Clouds: Few Clouds
Visibility: 10 miles , 16 km
Cloud details: Few Clouds 3600 ft
2022/09/25 04:53 KSTC 250453Z AUTO 28007KT 10SM FEW036 12/11 A2985 RMK AO2 SLP118 T01170111
 
KGYL - Glencoe, Minnesota, USA
Distance from station: SW 46mi, 74km
Updated: 09/25/2022 12:15am
Overcast
Overcast
 Wind from W
Wind: W 9 mph , 15 km/h
Temperature: 55°F , 13°C
Dew Point: 50°F , 10°C
Humidity: 82%
Barometer: 29.86 inHg , 1011.2 hPa
Clouds: Overcast
Visibility: 7 miles , 11 km
Cloud details: Overcast 6000 ft
2022/09/25 05:15 KGYL 250515Z AUTO 28008KT 7SM OVC060 13/10 A2986 RMK AO2 T01310098
KJMR - Mora, Minnesota, USA
Distance from station: N 48mi, 78km
Updated: 09/25/2022 12:15am
Overcast
Overcast
 Wind from W
Wind: W 6 mph , 9 km/h
Temperature: 55°F , 13°C
Dew Point: 52°F , 11°C
Humidity: 88%
Barometer: 29.85 inHg , 1010.8 hPa
Clouds: Overcast
Visibility: 10 miles , 16 km
Cloud details: Overcast 2400 ft
2022/09/25 05:15 KJMR 250515Z AUTO 28005KT 10SM OVC024 13/11 A2985 RMK AO2